• Join FlightAware (Why Join?)
  • Login
  • US Flag 
11:23PM EST


 

Airport Tracker/Info


-or-


 

Live Flight TrackerFlight Track Log ✈ JZA7952 ✈ 10-May-2013 ✈ KMSP - CYYZ

Flight Track Log - Related Links

Times and Time Zones

All times are in EDT time to prevent confusion due to time zone crossing. See the JZA7952 flight status page for this flight to view local times or setup timezone preferences in your user account.

Time Position Orientation Groundspeed Altitude Reporting Facility
EDT Latitude Longitude Course Direction KTS MPH feet Rate Location/Type
07:18AM 44.9000 -93.2500 69° East 175 201 2,700  Level Minneapolis TRACON
07:18AM 44.9275 -93.2792 323° Northwest 198 228 4,000 2,280 Climbing Minneapolis Center
07:19AM 44.9886 -93.2953 349° North 247 284 6,500 2,820 Climbing Minneapolis Center
07:20AM 45.0369 -93.2250 46° Northeast 259 298 9,800 3,060 Climbing Minneapolis Center
07:21AM 45.0336 -92.6285 66° East  Level FlightAware Approximate
07:21AM 45.0744 -93.1275 61° Northeast 279 321 12,700  Level Minneapolis Center
07:22AM 45.0784 -92.4827 66° East  Level FlightAware Approximate
07:22AM 45.1133 -93.0233 62° Northeast 296 341 15,200  Level Minneapolis Center
07:23AM 45.1133 -92.3337 69° East  Level FlightAware Approximate
07:23AM 45.1550 -92.9125 62° Northeast 317 365 17,500  Level Minneapolis Center
07:24AM 45.1967 -92.7994 62° Northeast 322 371 19,400 1,800 Climbing Minneapolis Center
07:25AM 45.2417 -92.6778 62° Northeast 345 397 21,200 1,980 Climbing Minneapolis Center
07:26AM 45.2731 -92.5164 74° East 359 413 23,400 1,800 Climbing Minneapolis Center
07:27AM 45.2908 -92.3750 80° East 365 420 24,900 1,440 Climbing Minneapolis Center
07:28AM 45.3114 -92.2303 79° East 373 429 26,400 1,380 Climbing Minneapolis Center
07:29AM 45.3317 -92.0831 79° East 380 437 27,800 1,140 Climbing Minneapolis Center
07:30AM 45.3531 -91.9322 79° East 388 447 28,700 900 Climbing Minneapolis Center
07:31AM 45.3733 -91.7792 79° East 394 453 29,700 900 Climbing Minneapolis Center
07:32AM 45.3939 -91.6233 79° East 400 460 30,600 720 Climbing Minneapolis Center
07:33AM 45.4161 -91.4628 79° East 411 473 31,200 660 Climbing Minneapolis Center
07:34AM 45.4369 -91.2994 80° East 419 482 32,000 660 Climbing Minneapolis Center
07:35AM 45.4586 -91.1228 80° East 427 491 32,600 480 Climbing Minneapolis Center
07:36AM 45.4525 -90.9544 93° East 427 491 33,000 180 Climbing Minneapolis Center
07:37AM 45.4056 -90.7972 113° Southeast 430 495 33,000  Level Minneapolis Center
07:38AM 45.3547 -90.6336 114° Southeast 449 517 33,000  Level Minneapolis Center
07:39AM 45.3022 -90.4700 114° Southeast 456 525 33,000  Level Minneapolis Center
07:40AM 45.2519 -90.3075 114° Southeast 454 522 33,000  Level Minneapolis Center
07:42AM 45.2008 -90.1492 115° Southeast 447 514 33,000  Level Minneapolis Center
07:43AM 45.1511 -89.9928 114° Southeast 440 506 33,000  Level Minneapolis Center
07:44AM 45.1019 -89.8392 114° Southeast 433 498 33,000  Level Minneapolis Center
07:45AM 45.0453 -89.6642 115° Southeast 431 496 33,000  Level Minneapolis Center
07:46AM 44.9961 -89.5122 115° Southeast 426 490 33,000  Level Minneapolis Center
07:47AM 44.9472 -89.3628 115° Southeast 421 484 33,000  Level Minneapolis Center
07:48AM 44.8978 -89.2133 115° Southeast 420 483 33,000  Level Minneapolis Center
07:49AM 44.8483 -89.0614 115° Southeast 423 487 33,000  Level Minneapolis Center
07:50AM 44.7964 -88.9108 116° Southeast 427 491 33,000  Level Minneapolis Center
07:51AM 44.7464 -88.7564 114° Southeast 431 496 33,000  Level Minneapolis Center
07:52AM 44.6942 -88.6039 116° Southeast 432 497 33,000  Level Minneapolis Center
07:53AM 44.6431 -88.4519 115° Southeast 430 495 33,000 300 Level Minneapolis Center
07:55AM 44.5461 -88.1511 114° Southeast 423 487 34,000 540 Climbing Minneapolis Center
07:56AM 44.5139 -87.9956 106° East 417 480 34,800 480 Climbing Minneapolis Center
07:57AM 44.4775 -87.8319 107° East 422 486 35,000 60 Climbing Minneapolis Center
07:58AM 44.4436 -87.6744 107° East 433 498 35,000  Level Minneapolis Center
07:59AM 44.4031 -87.4839 107° East 437 503 35,000  Level Minneapolis Center
08:00AM 44.3664 -87.3178 107° East 444 511 35,000  Level Minneapolis Center
08:01AM 44.3361 -87.1792 107° East 444 511 35,000  Level Minneapolis Center
08:02AM 44.2933 -86.9889 107° East 434 499 35,000  Level Minneapolis Center
08:03AM 44.2589 -86.8331 107° East 426 490 35,000  Level Minneapolis Center
08:04AM 44.2258 -86.6819 107° East 414 476 35,000  Level Minneapolis Center
08:05AM 44.1925 -86.5328 107° East 409 471 35,000  Level Minneapolis Center
08:06AM 44.1597 -86.3867 107° East 402 463 35,000  Level Minneapolis Center
08:07AM 44.1261 -86.2408 108° East 399 459 35,000  Level Minneapolis Center
08:08AM 44.0914 -86.0925 108° East 403 464 35,000  Level Minneapolis Center
08:09AM 44.0569 -85.9411 108° East 408 470 35,000  Level Minneapolis Center
08:10AM 44.0214 -85.7881 108° East 414 476 35,000  Level Minneapolis Center
08:11AM 43.9856 -85.6339 108° East 418 481 35,000  Level Minneapolis Center
08:12AM 43.9489 -85.4772 108° East 423 487 35,000  Level Minneapolis Center
08:13AM 43.9033 -85.2875 108° East 428 493 35,000  Level Minneapolis Center
08:14AM 43.8664 -85.1289 108° East 431 496 35,000  Level Minneapolis Center
08:15AM 43.8272 -84.9686 109° East 436 502 35,000  Level Minneapolis Center
08:16AM 43.7875 -84.8067 109° East 441 507 35,000  Level Minneapolis Center
08:17AM 43.7478 -84.6436 109° East 445 512 35,000  Level Minneapolis Center
08:18AM 43.7086 -84.4797 108° East 448 516 35,000  Level Minneapolis Center
08:19AM 43.6667 -84.3144 109° East 453 521 35,000  Level Minneapolis Center
08:20AM 43.6258 -84.1475 109° East 457 526 35,000  Level Minneapolis Center
08:21AM 43.5964 -84.0403 111° Southeast 457 526 35,000  Level Cleveland Center
08:22AM 43.5533 -83.8744 110° East 457 526 35,000 -420 Level Cleveland Center
08:23AM 43.5375 -83.6961 97° East 463 533 34,200 -900 Descending Cleveland Center
08:24AM 43.5381 -83.5128 90° East 468 539 33,200 -1,140 Descending Cleveland Center
08:25AM 43.5342 -83.3264 92° East 474 545 32,000 -1,200 Descending Cleveland Center
08:26AM 43.5322 -83.1458 91° East 474 545 30,800 -1,200 Descending Cleveland Center
08:27AM 43.5297 -82.9597 91° East 479 551 29,600 -900 Descending Cleveland Center
08:28AM 43.5250 -82.7764 92° East 479 551 29,000 -300 Descending Cleveland Center
08:29AM 43.5167 -82.6000 94° East 480 552 29,000  Level Toronto Center
08:30AM 43.5167 -82.4000 90° East 480 552 29,000  Level Toronto Center
08:31AM 43.5000 -82.2333 98° East 490 564 29,000  Level Toronto Center
08:32AM 43.5000 -82.0167 90° East 490 564 29,000 -780 Level Toronto Center
08:33AM 43.5000 -81.8333 90° East 490 564 27,500 -2,220 Descending Toronto Center
08:34AM 43.5000 -81.6500 90° East 470 541 24,600 -2,460 Descending Toronto Center
08:35AM 43.4833 -81.5000 99° East 440 506 22,600 -2,460 Descending Toronto Center
08:36AM 43.4833 -81.3500 90° East 420 483 19,700 -3,060 Descending Toronto Center
08:37AM 43.4667 -81.2000 99° East 410 472 16,500 -2,640 Descending Toronto Center
08:38AM 43.4667 -81.0333 90° East 390 449 14,500 -2,280 Descending Toronto Center
08:39AM 43.4500 -80.9000 100° East 380 437 12,000 -2,100 Descending Toronto Center
08:40AM 43.4667 -80.7667 80° East 350 403 10,400 -1,140 Descending Toronto Center
08:41AM 43.4667 -80.6667 90° East 290 334 9,800 -720 Descending Toronto Center
08:42AM 43.4667 -80.5500 90° East 280 322 9,000 -780 Descending Toronto Center
08:43AM 43.4667 -80.4333 90° East 280 322 8,300 -840 Descending Toronto Center
08:44AM 43.4667 -80.3500 90° East 270 311 7,400 -660 Descending Toronto Center
08:45AM 43.4833 -80.2500 77° East 260 299 7,000 -240 Descending Toronto Center
08:46AM 43.4833 -80.1667 90° East 240 276 7,000 -300 Level Toronto Center
08:47AM 43.4667 -80.0667 103° East 240 276 6,500 -960 Descending Toronto Center
08:48AM 43.4667 -79.9833 90° East 240 276 5,100 -900 Descending Toronto Center
08:49AM 43.4667 -79.8833 90° East 230 265 4,700 -600 Descending Toronto Center
08:50AM 43.5000 -79.8167 55° Northeast 240 276 4,000 -600 Descending Toronto Center
08:51AM 43.5500 -79.7500 44° Northeast 230 265 3,500 -840 Descending Toronto Center
08:52AM 43.5833 -79.7000 47° Northeast 220 253 2,400 -1,140 Descending Toronto Center